Time;durP1;ratioP1;P1;durP2;ratioP2;P2;SDS_P1;SDS_P2;PMS_P1;PMS_P2;Temp;Humidity;BMP_temperature;BMP_pressure;BME280_temperature;BME280_humidity;BME280_pressure;Samples;Min_cycle;Max_cycle;Signal;HPM_P1;HPM_P2
2023/04/08 00:06:21;;;;;;;;;;;;;;;;;;6199195;23;19963;-87
2023/04/08 00:08:47;;;;;;;;;;;;;;;;;;6138044;23;20160;-87
2023/04/08 00:11:18;;;;;;;;;;;;;;;;;;6137298;23;20496;-86
2023/04/08 00:13:44;;;;;;;;;;;;;;;;;;6137623;23;20640;-86
2023/04/08 00:16:10;;;;;;;;;;;;;;;;;;6162198;23;20404;-87
2023/04/08 00:18:37;;;;;;;;;;;;;;;;;;6138429;23;19999;-88
2023/04/08 00:21:09;;;;;;;;;;;;;;;;;;6137408;23;19927;-87
2023/04/08 00:23:35;;;;;;;;;;;;;;;;;;6138354;23;19920;-86
2023/04/08 00:26:01;;;;;;;;;;;;;;;;;;6163079;23;19916;-88
2023/04/08 00:28:27;;;;;;;;;;;;;;;;;;6138624;23;19924;-87
2023/04/08 00:30:53;;;;;;;;;;;;;;;;;;6137939;23;19924;-86
2023/04/08 00:33:19;;;;;;;;;;;;;;;;;;6138446;23;19920;-86
2023/04/08 00:35:45;;;;;;;;;;;;;;;;;;6162133;23;19916;-83
2023/04/08 00:38:11;;;;;;;;;;;;;;;;;;6136683;23;19931;-85
2023/04/08 00:40:36;;;;;;;;;;;;;;;;;;6137593;23;19916;-85
2023/04/08 00:43:02;;;;;;;;;;;;;;;;;;6138229;23;19996;-87
2023/04/08 00:45:28;;;;;;;;;;;;;;;;;;6137976;23;19916;-86
2023/04/08 00:47:55;;;;;;;;;;;;;;;;;;6138309;23;19924;-85
2023/04/08 00:50:21;;;;;;;;;;;;;;;;;;6138182;23;19916;-86
2023/04/08 00:52:46;;;;;;;;;;;;;;;;;;6137650;23;19940;-86
2023/04/08 00:55:12;;;;;;;;;;;;;;;;;;6138134;23;19916;-85
2023/04/08 00:57:38;;;;;;;;;;;;;;;;;;6138249;23;19917;-84
2023/04/08 01:00:05;;;;;;;;;;;;;;;;;;6137766;23;20338;-87
2023/04/08 01:02:31;;;;;;;;;;;;;;;;;;6138119;23;19916;-87
2023/04/08 01:04:57;;;;;;;;;;;;;;;;;;6138522;23;19923;-88
2023/04/08 01:07:23;;;;;;;;;;;;;;;;;;6137492;23;19939;-87
2023/04/08 01:09:49;;;;;;;;;;;;;;;;;;6136905;23;19916;-87
2023/04/08 01:12:15;;;;;;;;;;;;;;;;;;6137960;23;19923;-87
2023/04/08 01:14:40;;;;;;;;;;;;;;;;;;6162491;23;19917;-86
2023/04/08 01:17:06;;;;;;;;;;;;;;;;;;6136693;23;19916;-86
2023/04/08 01:19:32;;;;;;;;;;;;;;;;;;6137799;23;19927;-86
2023/04/08 01:21:58;;;;;;;;;;;;;;;;;;6162237;23;19916;-85
2023/04/08 01:24:24;;;;;;;;;;;;;;;;;;6137473;23;19942;-84
2023/04/08 01:26:50;;;;;;;;;;;;;;;;;;6137784;23;19917;-85
2023/04/08 01:29:16;;;;;;;;;;;;;;;;;;6161841;23;19940;-85
2023/04/08 01:31:42;;;;;;;;;;;;;;;;;;6138377;23;19917;-87
2023/04/08 01:34:08;;;;;;;;;;;;;;;;;;6137573;23;19959;-84
2023/04/08 01:36:44;;;;;;;;;;;;;;;;;;6137357;23;19924;-86
2023/04/08 01:39:10;;;;;;;;;;;;;;;;;;6161707;23;19927;-86
2023/04/08 01:41:36;;;;;;;;;;;;;;;;;;6137821;23;19917;-86
2023/04/08 01:44:02;;;;;;;;;;;;;;;;;;6162321;23;19916;-86
2023/04/08 01:46:28;;;;;;;;;;;;;;;;;;6137790;23;19923;-85
2023/04/08 01:48:54;;;;;;;;;;;;;;;;;;6137531;23;20330;-83
2023/04/08 01:51:19;;;;;;;;;;;;;;;;;;6137282;23;19916;-86
2023/04/08 01:53:45;;;;;;;;;;;;;;;;;;6137795;23;20331;-85
2023/04/08 01:56:11;;;;;;;;;;;;;;;;;;6136597;23;19917;-85
2023/04/08 01:58:38;;;;;;;;;;;;;;;;;;6160795;23;19920;-86
2023/04/08 02:01:04;;;;;;;;;;;;;;;;;;6136406;23;19927;-86
2023/04/08 02:03:30;;;;;;;;;;;;;;;;;;6137497;23;19916;-86
2023/04/08 02:05:56;;;;;;;;;;;;;;;;;;6139115;23;19920;-86
2023/04/08 02:08:22;;;;;;;;;;;;;;;;;;6164135;23;19923;-87
2023/04/08 02:10:48;;;;;;;;;;;;;;;;;;6133946;23;19917;-87
2023/04/08 02:13:14;;;;;;;;;;;;;;;;;;6134116;23;19921;-86
2023/04/08 02:15:39;;;;;;;;;;;;;;;;;;6158933;23;20395;-85
2023/04/08 02:18:06;;;;;;;;;;;;;;;;;;6133825;23;19916;-85
2023/04/08 02:20:32;;;;;;;;;;;;;;;;;;6133919;23;19948;-86
2023/04/08 02:22:58;;;;;;;;;;;;;;;;;;6159129;23;19940;-85
2023/04/08 02:25:24;;;;;;;;;;;;;;;;;;6134687;23;19920;-86
2023/04/08 02:27:50;;;;;;;;;;;;;;;;;;6134996;23;19917;-87
2023/04/08 02:30:16;;;;;;;;;;;;;;;;;;6134212;23;20345;-86
2023/04/08 02:32:42;;;;;;;;;;;;;;;;;;6133927;23;19971;-86
2023/04/08 02:35:08;;;;;;;;;;;;;;;;;;6133088;23;19916;-86
2023/04/08 02:37:34;;;;;;;;;;;;;;;;;;6133555;23;20350;-87
2023/04/08 02:40:00;;;;;;;;;;;;;;;;;;6133783;23;19921;-86
2023/04/08 02:42:35;;;;;;;;;;;;;;;;;;6134215;23;20399;-86
2023/04/08 02:45:01;;;;;;;;;;;;;;;;;;6134850;23;19916;-86
2023/04/08 02:47:27;;;;;;;;;;;;;;;;;;6159290;23;19923;-85
2023/04/08 02:49:54;;;;;;;;;;;;;;;;;;6133836;23;20015;-87
2023/04/08 02:52:19;;;;;;;;;;;;;;;;;;6134109;23;19917;-87
2023/04/08 02:54:45;;;;;;;;;;;;;;;;;;6133953;23;19917;-85
2023/04/08 02:57:11;;;;;;;;;;;;;;;;;;6133865;23;19923;-86
2023/04/08 02:59:39;;;;;;;;;;;;;;;;;;6133355;23;19927;-86
2023/04/08 03:02:05;;;;;;;;;;;;;;;;;;6133921;23;19924;-87
2023/04/08 03:04:31;;;;;;;;;;;;;;;;;;6134126;23;19917;-86
2023/04/08 03:06:57;;;;;;;;;;;;;;;;;;6134396;23;20251;-87
2023/04/08 03:09:23;;;;;;;;;;;;;;;;;;6133651;23;20344;-87
2023/04/08 03:11:52;;;;;;;;;;;;;;;;;;6158407;23;19924;-87
2023/04/08 03:14:17;;;;;;;;;;;;;;;;;;6134316;23;19925;-86
2023/04/08 03:16:43;;;;;;;;;;;;;;;;;;6133542;23;19950;-86
2023/04/08 03:19:09;;;;;;;;;;;;;;;;;;6132619;23;20315;-86
2023/04/08 03:21:35;;;;;;;;;;;;;;;;;;6133848;23;19921;-85
2023/04/08 03:24:01;;;;;;;;;;;;;;;;;;6134139;23;19916;-86
2023/04/08 03:26:27;;;;;;;;;;;;;;;;;;6134080;23;20342;-85
2023/04/08 03:28:53;;;;;;;;;;;;;;;;;;6134076;23;19916;-87
2023/04/08 03:31:20;;;;;;;;;;;;;;;;;;6158108;23;19916;-87
2023/04/08 03:33:46;;;;;;;;;;;;;;;;;;6158474;23;19920;-87
2023/04/08 03:36:12;;;;;;;;;;;;;;;;;;6134173;23;19991;-85
2023/04/08 03:38:38;;;;;;;;;;;;;;;;;;6133567;23;20353;-87
2023/04/08 03:41:04;;;;;;;;;;;;;;;;;;6133220;23;20043;-87
2023/04/08 03:43:30;;;;;;;;;;;;;;;;;;6134328;23;19920;-86
2023/04/08 03:45:56;;;;;;;;;;;;;;;;;;6134086;23;19921;-86
2023/04/08 03:48:22;;;;;;;;;;;;;;;;;;6133670;23;19920;-86
2023/04/08 03:50:47;;;;;;;;;;;;;;;;;;6133340;23;19927;-86
2023/04/08 03:53:14;;;;;;;;;;;;;;;;;;6134641;23;19942;-85
2023/04/08 03:55:39;;;;;;;;;;;;;;;;;;6157793;23;19927;-86
2023/04/08 03:58:05;;;;;;;;;;;;;;;;;;6132826;23;19917;-86
2023/04/08 04:00:31;;;;;;;;;;;;;;;;;;6133634;23;19917;-85
2023/04/08 04:02:57;;;;;;;;;;;;;;;;;;6133647;23;20332;-86
2023/04/08 04:05:23;;;;;;;;;;;;;;;;;;6133962;23;19917;-86
2023/04/08 04:07:49;;;;;;;;;;;;;;;;;;6133865;23;19940;-87
2023/04/08 04:10:15;;;;;;;;;;;;;;;;;;6132830;23;19917;-86
2023/04/08 04:12:41;;;;;;;;;;;;;;;;;;6158360;23;19987;-85
2023/04/08 04:15:07;;;;;;;;;;;;;;;;;;6133231;23;20332;-86
2023/04/08 04:17:33;;;;;;;;;;;;;;;;;;6134080;23;19917;-87
2023/04/08 04:19:59;;;;;;;;;;;;;;;;;;6133207;23;19971;-85
2023/04/08 04:22:25;;;;;;;;;;;;;;;;;;6133889;23;19917;-85
2023/04/08 04:24:51;;;;;;;;;;;;;;;;;;6159372;23;20254;-87
2023/04/08 04:27:16;;;;;;;;;;;;;;;;;;6133846;23;19916;-87
2023/04/08 04:29:43;;;;;;;;;;;;;;;;;;6133968;23;19960;-85
2023/04/08 04:32:09;;;;;;;;;;;;;;;;;;6134587;23;19916;-87
2023/04/08 04:34:35;;;;;;;;;;;;;;;;;;6133360;23;19916;-85
2023/04/08 04:37:01;;;;;;;;;;;;;;;;;;6133214;23;19923;-84
2023/04/08 04:39:27;;;;;;;;;;;;;;;;;;6133187;23;19980;-85
2023/04/08 04:41:53;;;;;;;;;;;;;;;;;;6133633;23;20458;-86
2023/04/08 04:44:19;;;;;;;;;;;;;;;;;;6133917;23;19995;-85
2023/04/08 04:46:44;;;;;;;;;;;;;;;;;;6133917;23;19971;-86
2023/04/08 04:49:11;;;;;;;;;;;;;;;;;;6133104;23;19923;-85
2023/04/08 04:51:37;;;;;;;;;;;;;;;;;;6134590;23;20335;-86
2023/04/08 04:54:03;;;;;;;;;;;;;;;;;;6133208;23;19971;-86
2023/04/08 04:56:28;;;;;;;;;;;;;;;;;;6133530;23;19995;-87
2023/04/08 04:58:54;;;;;;;;;;;;;;;;;;6157772;23;19971;-87
2023/04/08 05:01:20;;;;;;;;;;;;;;;;;;6158239;23;19917;-85
2023/04/08 05:03:46;;;;;;;;;;;;;;;;;;6133789;23;19948;-87
2023/04/08 05:06:12;;;;;;;;;;;;;;;;;;6133698;23;19972;-87
2023/04/08 05:08:38;;;;;;;;;;;;;;;;;;6158074;23;19916;-85
2023/04/08 05:11:04;;;;;;;;;;;;;;;;;;6158084;23;19925;-86
2023/04/08 05:13:30;;;;;;;;;;;;;;;;;;6132072;23;19968;-87
2023/04/08 05:15:56;;;;;;;;;;;;;;;;;;6133522;23;19921;-86
2023/04/08 05:18:22;;;;;;;;;;;;;;;;;;6133201;23;20410;-87
2023/04/08 05:20:48;;;;;;;;;;;;;;;;;;6133195;23;19948;-86
2023/04/08 05:23:14;;;;;;;;;;;;;;;;;;6133631;23;19920;-86
2023/04/08 05:25:40;;;;;;;;;;;;;;;;;;6133891;23;20339;-87
2023/04/08 05:28:06;;;;;;;;;;;;;;;;;;6133898;23;19947;-87
2023/04/08 05:30:32;;;;;;;;;;;;;;;;;;6157460;23;19967;-86
2023/04/08 05:32:58;;;;;;;;;;;;;;;;;;6158314;23;19917;-86
2023/04/08 05:35:24;;;;;;;;;;;;;;;;;;6133698;23;19952;-87
2023/04/08 05:37:50;;;;;;;;;;;;;;;;;;6158386;23;19968;-87
2023/04/08 05:40:15;;;;;;;;;;;;;;;;;;6134128;23;19964;-86
2023/04/08 05:42:41;;;;;;;;;;;;;;;;;;6159910;23;20014;-87
2023/04/08 05:45:07;;;;;;;;;;;;;;;;;;6135573;23;19900;-87
2023/04/08 05:47:33;;;;;;;;;;;;;;;;;;6159954;23;19917;-86
2023/04/08 05:49:59;;;;;;;;;;;;;;;;;;6159325;23;19955;-86
2023/04/08 05:52:25;;;;;;;;;;;;;;;;;;6133815;23;19959;-86
2023/04/08 05:54:51;;;;;;;;;;;;;;;;;;6159326;23;20347;-87
2023/04/08 05:57:17;;;;;;;;;;;;;;;;;;6135128;23;19967;-86
2023/04/08 05:59:52;;;;;;;;;;;;;;;;;;6134917;23;19920;-86
2023/04/08 06:02:18;;;;;;;;;;;;;;;;;;6134652;23;19917;-87
2023/04/08 06:04:44;;;;;;;;;;;;;;;;;;6134616;23;19916;-85
2023/04/08 06:07:10;;;;;;;;;;;;;;;;;;6133853;23;19917;-86
2023/04/08 06:09:36;;;;;;;;;;;;;;;;;;6133067;23;20354;-86
2023/04/08 06:12:02;;;;;;;;;;;;;;;;;;6133657;23;19988;-87
2023/04/08 06:14:28;;;;;;;;;;;;;;;;;;6133743;23;19916;-85
2023/04/08 06:16:55;;;;;;;;;;;;;;;;;;6133872;23;19920;-86
2023/04/08 06:19:22;;;;;;;;;;;;;;;;;;6133206;23;20254;-88
2023/04/08 06:21:48;;;;;;;;;;;;;;;;;;6135872;23;19917;-88
2023/04/08 06:24:14;;;;;;;;;;;;;;;;;;6158381;23;20401;-87
2023/04/08 06:26:41;;;;;;;;;;;;;;;;;;6158132;23;19917;-86
2023/04/08 06:29:07;;;;;;;;;;;;;;;;;;6133425;23;20247;-87
2023/04/08 06:31:33;;;;;;;;;;;;;;;;;;6133112;23;19923;-85
2023/04/08 06:33:59;;;;;;;;;;;;;;;;;;6132044;23;19917;-85
2023/04/08 06:36:27;;;;;;;;;;;;;;;;;;6133500;23;19917;-87
2023/04/08 06:38:53;;;;;;;;;;;;;;;;;;6157825;23;20339;-86
2023/04/08 06:41:19;;;;;;;;;;;;;;;;;;6133816;23;19924;-87
2023/04/08 06:43:45;;;;;;;;;;;;;;;;;;6133429;23;19916;-86
2023/04/08 06:46:11;;;;;;;;;;;;;;;;;;6133211;23;20335;-86
2023/04/08 06:48:37;;;;;;;;;;;;;;;;;;6133322;23;19967;-86
2023/04/08 06:51:03;;;;;;;;;;;;;;;;;;6132694;23;19924;-87
2023/04/08 06:53:31;;;;;;;;;;;;;;;;;;6133968;23;19916;-87
2023/04/08 06:55:57;;;;;;;;;;;;;;;;;;6134003;23;19921;-87
2023/04/08 06:58:23;;;;;;;;;;;;;;;;;;6133066;23;19921;-88
2023/04/08 07:00:49;;;;;;;;;;;;;;;;;;6133228;23;20329;-87
2023/04/08 07:03:15;;;;;;;;;;;;;;;;;;6133265;23;19920;-87
2023/04/08 07:05:41;;;;;;;;;;;;;;;;;;6133543;23;19916;-87
2023/04/08 07:08:07;;;;;;;;;;;;;;;;;;6133243;23;19917;-86
2023/04/08 07:10:33;;;;;;;;;;;;;;;;;;6157190;23;19916;-85
2023/04/08 07:12:58;;;;;;;;;;;;;;;;;;6132561;23;19967;-87
2023/04/08 07:15:24;;;;;;;;;;;;;;;;;;6158031;23;20347;-87
2023/04/08 07:17:51;;;;;;;;;;;;;;;;;;6158161;23;19921;-87
2023/04/08 07:20:17;;;;;;;;;;;;;;;;;;6133143;23;20324;-88
2023/04/08 07:22:43;;;;;;;;;;;;;;;;;;6134150;23;19924;-87
2023/04/08 07:25:08;;;;;;;;;;;;;;;;;;6133258;23;19916;-86
2023/04/08 07:27:35;;;;;;;;;;;;;;;;;;6133274;23;20361;-87
2023/04/08 07:30:01;;;;;;;;;;;;;;;;;;6133240;23;20332;-86
2023/04/08 07:32:27;;;;;;;;;;;;;;;;;;6133355;23;19920;-87
2023/04/08 07:34:53;;;;;;;;;;;;;;;;;;6133786;23;19939;-86
2023/04/08 07:37:19;;;;;;;;;;;;;;;;;;6133201;23;19975;-86
2023/04/08 07:39:45;;;;;;;;;;;;;;;;;;6133679;23;19927;-87
2023/04/08 07:42:11;;;;;;;;;;;;;;;;;;6133792;23;19952;-87
2023/04/08 07:44:37;;;;;;;;;;;;;;;;;;6133481;23;19917;-87
2023/04/08 07:47:03;;;;;;;;;;;;;;;;;;6133413;23;19916;-87
2023/04/08 07:49:29;;;;;;;;;;;;;;;;;;6132730;23;19940;-84
2023/04/08 07:51:56;;;;;;;;;;;;;;;;;;6132088;23;20348;-85
2023/04/08 07:54:22;;;;;;;;;;;;;;;;;;6132379;23;19917;-85
2023/04/08 07:56:48;;;;;;;;;;;;;;;;;;6132971;23;20220;-86
2023/04/08 07:59:14;;;;;;;;;;;;;;;;;;6132584;23;19943;-86
2023/04/08 08:01:40;;;;;;;;;;;;;;;;;;6131451;23;19959;-85
2023/04/08 08:04:06;;;;;;;;;;;;;;;;;;6132997;23;19923;-86
2023/04/08 08:06:32;;;;;;;;;;;;;;;;;;6133079;23;19917;-85
2023/04/08 08:08:58;;;;;;;;;;;;;;;;;;6133224;23;19917;-86
2023/04/08 08:11:25;;;;;;;;;;;;;;;;;;6132826;23;19917;-85
2023/04/08 08:13:51;;;;;;;;;;;;;;;;;;6133064;23;20389;-84
2023/04/08 08:16:17;;;;;;;;;;;;;;;;;;6133218;23;19992;-86
2023/04/08 08:18:43;;;;;;;;;;;;;;;;;;6132922;23;19921;-86
2023/04/08 08:21:09;;;;;;;;;;;;;;;;;;6132941;23;19987;-84
2023/04/08 08:23:36;;;;;;;;;;;;;;;;;;6132886;23;20331;-84
2023/04/08 08:26:02;;;;;;;;;;;;;;;;;;6158193;23;19917;-86
2023/04/08 08:28:28;;;;;;;;;;;;;;;;;;6133914;23;20301;-84
2023/04/08 08:30:54;;;;;;;;;;;;;;;;;;6130950;23;19991;-85
2023/04/08 08:33:20;;;;;;;;;;;;;;;;;;6132454;23;19979;-86
2023/04/08 08:35:45;;;;;;;;;;;;;;;;;;6133194;23;20316;-83
2023/04/08 08:38:12;;;;;;;;;;;;;;;;;;6156744;23;19917;-85
2023/04/08 08:40:38;;;;;;;;;;;;;;;;;;6132572;23;20378;-86
2023/04/08 08:43:04;;;;;;;;;;;;;;;;;;6133410;23;19928;-85
2023/04/08 08:45:30;;;;;;;;;;;;;;;;;;6133186;23;19975;-85
2023/04/08 08:47:56;;;;;;;;;;;;;;;;;;6132476;23;20370;-84
2023/04/08 08:50:22;;;;;;;;;;;;;;;;;;6131752;23;19917;-84
2023/04/08 08:52:48;;;;;;;;;;;;;;;;;;6132349;23;19967;-85
2023/04/08 08:55:14;;;;;;;;;;;;;;;;;;6157059;23;19958;-86
2023/04/08 08:57:40;;;;;;;;;;;;;;;;;;6132593;23;19917;-87
2023/04/08 09:00:07;;;;;;;;;;;;;;;;;;6132509;23;19980;-86
2023/04/08 09:02:33;;;;;;;;;;;;;;;;;;6132062;23;19923;-85
2023/04/08 09:04:59;;;;;;;;;;;;;;;;;;6132477;23;19916;-85
2023/04/08 09:07:25;;;;;;;;;;;;;;;;;;6132995;23;20299;-86
2023/04/08 09:09:51;;;;;;;;;;;;;;;;;;6131276;23;20291;-85
2023/04/08 09:12:17;;;;;;;;;;;;;;;;;;6136777;23;19916;-85
2023/04/08 09:14:43;;;;;;;;;;;;;;;;;;6137017;23;20331;-85
2023/04/08 09:17:09;;;;;;;;;;;;;;;;;;6161912;23;19923;-87
2023/04/08 09:19:35;;;;;;;;;;;;;;;;;;6136646;23;19931;-86
2023/04/08 09:24:56;;;;;;;;;;;;;;;;;;6160853;23;20262;-86
2023/04/08 09:27:22;;;;;;;;;;;;;;;;;;6161008;23;19916;-86
2023/04/08 09:29:54;;;;;;;;;;;;;;;;;;6161262;23;19916;-85
2023/04/08 09:32:21;;;;;;;;;;;;;;;;;;6138253;23;19974;-87
2023/04/08 09:34:49;;;;;;;;;;;;;;;;;;6161848;23;19916;-86
2023/04/08 09:37:15;;;;;;;;;;;;;;;;;;6137100;23;19917;-87
2023/04/08 09:39:41;;;;;;;;;;;;;;;;;;6161060;23;20339;-87
2023/04/08 09:42:07;;;;;;;;;;;;;;;;;;6137517;23;19970;-87
2023/04/08 09:44:34;;;;;;;;;;;;;;;;;;6138102;23;19916;-87
2023/04/08 09:47:00;;;;;;;;;;;;;;;;;;6165106;23;19916;-86
2023/04/08 09:49:26;;;;;;;;;;;;;;;;;;6137958;23;20238;-86
2023/04/08 09:51:52;;;;;;;;;;;;;;;;;;6137684;23;19916;-88
2023/04/08 09:54:18;;;;;;;;;;;;;;;;;;6137682;23;19924;-86
2023/04/08 09:56:44;;;;;;;;;;;;;;;;;;6137716;23;19947;-85
2023/04/08 09:59:10;;;;;;;;;;;;;;;;;;6135939;23;19920;-87
2023/04/08 10:01:36;;;;;;;;;;;;;;;;;;6162379;23;20343;-88
2023/04/08 10:04:02;;;;;;;;;;;;;;;;;;6138396;23;20345;-85
2023/04/08 10:06:28;;;;;;;;;;;;;;;;;;6138479;23;19916;-86
2023/04/08 10:08:54;;;;;;;;;;;;;;;;;;6138091;23;19947;-88
2023/04/08 10:11:20;;;;;;;;;;;;;;;;;;6132605;23;19962;-85
2023/04/08 10:13:46;;;;;;;;;;;;;;;;;;6133375;23;20362;-86
2023/04/08 10:16:12;;;;;;;;;;;;;;;;;;6132652;23;20044;-84
2023/04/08 10:18:38;;;;;;;;;;;;;;;;;;6133094;23;19920;-85
2023/04/08 10:21:04;;;;;;;;;;;;;;;;;;6132310;23;19927;-86
2023/04/08 10:23:31;;;;;;;;;;;;;;;;;;6156834;23;19921;-86
2023/04/08 10:25:57;;;;;;;;;;;;;;;;;;6133000;23;19940;-83
2023/04/08 10:28:23;;;;;;;;;;;;;;;;;;6133514;23;19923;-87
2023/04/08 10:30:49;;;;;;;;;;;;;;;;;;6132789;23;20279;-85
2023/04/08 10:33:15;;;;;;;;;;;;;;;;;;6157818;23;19927;-84
2023/04/08 10:35:41;;;;;;;;;;;;;;;;;;6133267;23;19921;-84
2023/04/08 10:38:07;;;;;;;;;;;;;;;;;;6131966;23;19916;-85
2023/04/08 10:40:42;;;;;;;;;;;;;;;;;;6133020;23;19923;-82
2023/04/08 10:43:08;;;;;;;;;;;;;;;;;;6131929;23;19963;-85
2023/04/08 10:45:38;;;;;;;;;;;;;;;;;;6134204;23;20382;-85
2023/04/08 10:48:04;;;;;;;;;;;;;;;;;;6133234;23;19991;-85
2023/04/08 10:50:31;;;;;;;;;;;;;;;;;;6133274;23;19963;-87
2023/04/08 10:52:57;;;;;;;;;;;;;;;;;;6133091;23;19923;-85
2023/04/08 10:55:22;;;;;;;;;;;;;;;;;;6132983;23;19916;-85
2023/04/08 10:57:50;;;;;;;;;;;;;;;;;;6157422;23;19976;-84
2023/04/08 11:00:16;;;;;;;;;;;;;;;;;;6132776;23;19928;-86
2023/04/08 11:02:42;;;;;;;;;;;;;;;;;;6133378;23;19916;-85
2023/04/08 11:05:08;;;;;;;;;;;;;;;;;;6132819;23;19917;-86
2023/04/08 11:07:41;;;;;;;;;;;;;;;;;;6133153;23;19920;-84
2023/04/08 11:10:07;;;;;;;;;;;;;;;;;;6160316;23;19927;-86
2023/04/08 11:12:33;;;;;;;;;;;;;;;;;;6137581;23;19952;-86
2023/04/08 11:14:59;;;;;;;;;;;;;;;;;;6137579;23;20002;-85
2023/04/08 11:17:25;;;;;;;;;;;;;;;;;;6161715;23;19916;-85
2023/04/08 11:20:01;;;;;;;;;;;;;;;;;;6137272;23;19927;-85
2023/04/08 11:22:27;;;;;;;;;;;;;;;;;;6136938;23;19995;-85
2023/04/08 11:24:53;;;;;;;;;;;;;;;;;;6136699;23;19963;-85
2023/04/08 11:27:19;;;;;;;;;;;;;;;;;;6137901;23;19921;-85
2023/04/08 11:29:46;;;;;;;;;;;;;;;;;;6161077;23;19943;-88
2023/04/08 11:32:15;;;;;;;;;;;;;;;;;;6137711;23;19916;-85
2023/04/08 11:34:41;;;;;;;;;;;;;;;;;;6137916;23;19916;-84
2023/04/08 11:37:07;;;;;;;;;;;;;;;;;;6163279;23;19916;-86
2023/04/08 11:39:32;;;;;;;;;;;;;;;;;;6138029;23;20303;-87
2023/04/08 11:42:01;;;;;;;;;;;;;;;;;;6163544;23;20230;-85
2023/04/08 11:44:26;;;;;;;;;;;;;;;;;;6163343;23;20454;-87
2023/04/08 11:46:56;;;;;;;;;;;;;;;;;;6138426;23;19951;-85
2023/04/08 11:49:22;;;;;;;;;;;;;;;;;;6138226;23;19991;-86
2023/04/08 11:51:48;;;;;;;;;;;;;;;;;;6138526;23;19976;-87
2023/04/08 11:54:13;;;;;;;;;;;;;;;;;;6138342;23;20302;-85
2023/04/08 11:56:39;;;;;;;;;;;;;;;;;;6137826;23;19920;-86
2023/04/08 11:59:05;;;;;;;;;;;;;;;;;;6170651;23;19908;-91
2023/04/08 12:01:31;;;;;;;;;;;;;;;;;;6150844;23;19917;-91
2023/04/08 12:03:57;;;;;;;;;;;;;;;;;;6149856;23;19916;-91
2023/04/08 12:06:23;;;;;;;;;;;;;;;;;;6148578;23;19927;-92
2023/04/08 12:08:49;;;;;;;;;;;;;;;;;;6173613;23;19956;-91
2023/04/08 12:11:15;;;;;;;;;;;;;;;;;;6145940;23;19947;-92
2023/04/08 12:13:41;;;;;;;;;;;;;;;;;;6147599;23;19991;-92
2023/04/08 12:16:07;;;;;;;;;;;;;;;;;;6147373;23;19928;-92
2023/04/08 12:18:33;;;;;;;;;;;;;;;;;;6147551;23;19921;-92
2023/04/08 12:20:59;;;;;;;;;;;;;;;;;;6147180;23;19947;-91
2023/04/08 12:23:25;;;;;;;;;;;;;;;;;;6147462;23;19921;-92
2023/04/08 12:25:51;;;;;;;;;;;;;;;;;;6147949;23;19900;-93
2023/04/08 12:28:17;;;;;;;;;;;;;;;;;;6169415;23;19984;-90
2023/04/08 12:30:43;;;;;;;;;;;;;;;;;;6145230;23;19920;-91
2023/04/08 12:33:09;;;;;;;;;;;;;;;;;;6147702;23;19927;-93
2023/04/08 12:35:35;;;;;;;;;;;;;;;;;;6147518;23;19924;-91
2023/04/08 12:38:08;;;;;;;;;;;;;;;;;;6147041;23;19907;-93
2023/04/08 12:40:37;;;;;;;;;;;;;;;;;;6147892;23;19904;-92
2023/04/08 12:43:03;;;;;;;;;;;;;;;;;;6147394;23;19921;-92
2023/04/08 12:45:42;;;;;;;;;;;;;;;;;;6145557;23;19924;-92
2023/04/08 12:48:08;;;;;;;;;;;;;;;;;;6145539;23;19920;-90
2023/04/08 12:50:34;;;;;;;;;;;;;;;;;;6145421;23;19957;-91
2023/04/08 12:53:00;;;;;;;;;;;;;;;;;;6144054;23;19961;-87
2023/04/08 12:55:26;;;;;;;;;;;;;;;;;;6146249;23;19916;-91
2023/04/08 12:57:51;;;;;;;;;;;;;;;;;;6145971;23;19921;-92
2023/04/08 13:00:18;;;;;;;;;;;;;;;;;;6145716;23;19920;-93
2023/04/08 13:02:44;;;;;;;;;;;;;;;;;;6146400;23;19921;-92
2023/04/08 13:05:10;;;;;;;;;;;;;;;;;;6146428;23;19987;-93
2023/04/08 13:10:26;;;;;;;;;;;;;;;;;;6162640;23;20293;-88
2023/04/08 13:12:52;;;;;;;;;;;;;;;;;;6163957;23;19943;-88
2023/04/08 13:15:17;;;;;;;;;;;;;;;;;;6137915;23;19916;-88
2023/04/08 13:17:44;;;;;;;;;;;;;;;;;;6138771;23;19984;-87
2023/04/08 13:20:11;;;;;;;;;;;;;;;;;;6137914;23;20293;-87
2023/04/08 13:22:40;;;;;;;;;;;;;;;;;;6137436;23;19974;-86
2023/04/08 13:25:07;;;;;;;;;;;;;;;;;;6139340;23;20334;-87
2023/04/08 13:27:33;;;;;;;;;;;;;;;;;;6138225;23;19916;-87
2023/04/08 13:29:59;;;;;;;;;;;;;;;;;;6138501;23;19920;-89
2023/04/08 13:32:25;;;;;;;;;;;;;;;;;;6139015;23;19955;-87
2023/04/08 13:34:51;;;;;;;;;;;;;;;;;;6136477;23;19920;-87
2023/04/08 13:37:17;;;;;;;;;;;;;;;;;;6162559;23;19917;-87
2023/04/08 13:39:43;;;;;;;;;;;;;;;;;;6138084;23;19938;-88
2023/04/08 13:42:23;;;;;;;;;;;;;;;;;;6137024;23;20358;-88
2023/04/08 13:44:49;;;;;;;;;;;;;;;;;;6137776;23;19916;-87
2023/04/08 13:47:16;;;;;;;;;;;;;;;;;;6134647;23;19975;-88
2023/04/08 13:49:42;;;;;;;;;;;;;;;;;;6162633;23;19956;-88
2023/04/08 13:52:07;;;;;;;;;;;;;;;;;;6138227;23;19939;-86
2023/04/08 13:54:33;;;;;;;;;;;;;;;;;;6138490;23;19939;-88
2023/04/08 13:57:00;;;;;;;;;;;;;;;;;;6138147;23;19917;-89
2023/04/08 13:59:27;;;;;;;;;;;;;;;;;;6163087;23;19916;-86
2023/04/08 14:01:53;;;;;;;;;;;;;;;;;;6142175;23;19921;-85
2023/04/08 14:04:21;;;;;;;;;;;;;;;;;;6140813;23;22199;-88
2023/04/08 14:06:49;;;;;;;;;;;;;;;;;;6140859;23;19916;-89
2023/04/08 14:09:15;;;;;;;;;;;;;;;;;;6140508;23;19924;-88
2023/04/08 14:11:41;;;;;;;;;;;;;;;;;;6160900;23;19940;-87
2023/04/08 14:14:07;;;;;;;;;;;;;;;;;;6136265;23;19916;-88
2023/04/08 14:16:34;;;;;;;;;;;;;;;;;;6136258;23;19917;-87
2023/04/08 14:19:00;;;;;;;;;;;;;;;;;;6136085;23;19944;-88
2023/04/08 14:21:26;;;;;;;;;;;;;;;;;;6135286;23;19916;-95
2023/04/08 14:23:56;;;;;;;;;;;;;;;;;;6133346;23;19920;-89
2023/04/08 14:26:22;;;;;;;;;;;;;;;;;;6159672;23;19917;-87
2023/04/08 14:28:48;;;;;;;;;;;;;;;;;;6134777;23;19923;-86
2023/04/08 14:31:14;;;;;;;;;;;;;;;;;;6134207;23;19924;-88
2023/04/08 14:33:41;;;;;;;;;;;;;;;;;;6159326;23;19948;-86
2023/04/08 14:36:06;;;;;;;;;;;;;;;;;;6134667;23;19920;-88
2023/04/08 14:38:32;;;;;;;;;;;;;;;;;;6134910;23;19971;-88
2023/04/08 14:40:58;;;;;;;;;;;;;;;;;;6135526;23;19923;-89
2023/04/08 14:43:24;;;;;;;;;;;;;;;;;;6135239;23;19991;-88
2023/04/08 14:45:50;;;;;;;;;;;;;;;;;;6160721;23;19917;-87
2023/04/08 14:48:16;;;;;;;;;;;;;;;;;;6136931;23;19917;-89
2023/04/08 14:50:43;;;;;;;;;;;;;;;;;;6136729;23;19924;-88
2023/04/08 14:53:09;;;;;;;;;;;;;;;;;;6139308;23;19901;-87
2023/04/08 14:55:35;;;;;;;;;;;;;;;;;;6135502;23;20755;-88
2023/04/08 14:58:01;;;;;;;;;;;;;;;;;;6135167;23;19916;-88
2023/04/08 15:00:27;;;;;;;;;;;;;;;;;;6134667;23;19928;-88
2023/04/08 15:02:53;;;;;;;;;;;;;;;;;;6160388;23;19917;-88
2023/04/08 15:05:19;;;;;;;;;;;;;;;;;;6136673;23;20297;-87
2023/04/08 15:07:46;;;;;;;;;;;;;;;;;;6136343;23;20035;-88
2023/04/08 15:10:12;;;;;;;;;;;;;;;;;;6160751;23;20302;-86
2023/04/08 15:12:38;;;;;;;;;;;;;;;;;;6136076;23;19916;-86
2023/04/08 15:15:04;;;;;;;;;;;;;;;;;;6161355;23;19924;-87
2023/04/08 15:17:30;;;;;;;;;;;;;;;;;;6137123;23;19916;-86
2023/04/08 15:19:57;;;;;;;;;;;;;;;;;;6136382;23;19936;-87
2023/04/08 15:22:23;;;;;;;;;;;;;;;;;;6136709;23;19924;-87
2023/04/08 15:24:49;;;;;;;;;;;;;;;;;;6136755;23;19916;-89
2023/04/08 15:27:15;;;;;;;;;;;;;;;;;;6136843;23;19921;-87
2023/04/08 15:29:41;;;;;;;;;;;;;;;;;;6135348;23;19924;-88
2023/04/08 15:32:07;;;;;;;;;;;;;;;;;;6135556;23;19917;-89
2023/04/08 15:34:33;;;;;;;;;;;;;;;;;;6134834;23;19979;-89
2023/04/08 15:37:01;;;;;;;;;;;;;;;;;;6136223;23;19928;-87
2023/04/08 15:39:26;;;;;;;;;;;;;;;;;;6134085;23;19924;-88
2023/04/08 15:41:52;;;;;;;;;;;;;;;;;;6136610;23;19920;-87
2023/04/08 15:44:18;;;;;;;;;;;;;;;;;;6137186;23;20406;-88
2023/04/08 15:46:44;;;;;;;;;;;;;;;;;;6161988;23;20310;-88
2023/04/08 15:49:10;;;;;;;;;;;;;;;;;;6136364;23;19924;-88
2023/04/08 15:51:36;;;;;;;;;;;;;;;;;;6136808;23;19955;-88
2023/04/08 15:54:02;;;;;;;;;;;;;;;;;;6136296;23;19917;-88
2023/04/08 15:56:28;;;;;;;;;;;;;;;;;;6136179;23;19920;-88
2023/04/08 15:58:55;;;;;;;;;;;;;;;;;;6136218;23;19944;-88
2023/04/08 16:01:21;;;;;;;;;;;;;;;;;;6136173;23;19917;-89
2023/04/08 16:03:55;;;;;;;;;;;;;;;;;;6161102;23;19923;-89
2023/04/08 16:06:21;;;;;;;;;;;;;;;;;;6135922;23;19920;-88
2023/04/08 16:08:47;;;;;;;;;;;;;;;;;;6136616;23;19971;-89
2023/04/08 16:11:13;;;;;;;;;;;;;;;;;;6136023;23;19916;-88
2023/04/08 16:13:41;;;;;;;;;;;;;;;;;;6136738;23;19917;-87
2023/04/08 16:18:42;;;;;;;;;;;;;;;;;;6160985;23;19927;-88
2023/04/08 16:21:08;;;;;;;;;;;;;;;;;;6159474;23;19916;-87
2023/04/08 16:23:36;;;;;;;;;;;;;;;;;;6135555;23;19924;-88
2023/04/08 16:26:02;;;;;;;;;;;;;;;;;;6137317;23;20265;-88
2023/04/08 16:28:28;;;;;;;;;;;;;;;;;;6137574;23;19956;-88
2023/04/08 16:30:54;;;;;;;;;;;;;;;;;;6137150;23;19917;-89
2023/04/08 16:33:25;;;;;;;;;;;;;;;;;;6137231;23;19917;-88
2023/04/08 16:35:51;;;;;;;;;;;;;;;;;;6136690;23;19917;-89
2023/04/08 16:38:17;;;;;;;;;;;;;;;;;;6137200;23;19991;-87
2023/04/08 16:40:43;;;;;;;;;;;;;;;;;;6137251;23;19920;-88
2023/04/08 16:43:09;;;;;;;;;;;;;;;;;;6137371;23;20236;-88
2023/04/08 16:45:34;;;;;;;;;;;;;;;;;;6137673;23;19987;-88
2023/04/08 16:48:00;;;;;;;;;;;;;;;;;;6137004;23;19979;-88
2023/04/08 16:50:27;;;;;;;;;;;;;;;;;;6137035;23;19963;-89
2023/04/08 16:52:53;;;;;;;;;;;;;;;;;;6136964;23;19916;-89